X  Sluiten METAR luchtvaart weer gegevens      EHLW Leeuwarden Air Base
Temperatuur
16°C Temperatuur
15°C Dauwpunt
94% Vochtigheid



Wind
14 KM/U
9 MPH
4 M/S
8 KTS



140°
ZO
Huidig weer

Mist Mist
Luchtdruk 1010.92 (hPa) - 29.85 (inHg)
Zicht 5.6 (mijl) - 9 (km)
Vliegveld
Vliegveld code EHLW

Locatie : Leeuwarden Air Base
Afstand: 30 (km)

Metar:
EHLW 301425Z AUTO 14008KT 100V160 9000 BR FEW007 BKN028 OVC034 16/15 Q1011 BLU

Tijd: 30-09-2020 16:25 CEST